Aérodrome :
LOGIN :

S'inscrire | Disclaimer

   EN    FR    IT 

 










Légende :    VFR   VFR Marginal   IFR   IFR Intensif   IFR Très Intensif
Visi : 
Plafond : 
>= 8 km
>= 3000ft
5 à 8 km
1000 à 3000 ft
1500m à 5 km
500 à 1000 ft
800 à 1500m
200 à 500 ft
< 800m
< 200 ft
Symboles :   Orages  Brouillard  Fortes neiges  Fortes précipitations  Vent > 20 kt
SIGMETs :   Divers  Orages  Givrage  Turbulence  Onde Orograph.  Cendres Volcan.







- Altitude de l'aérodrome : 194 ft
- Code IATA : LME
- Voir les cartes d'approche


LFRM - Le Mans

DERNIER METAR :
  • 211730Z AUTO 07005KT CAVOK 03/M01 Q1015 NOSIG

METARs EXPIRÉS :
  • 211700Z AUTO 07005KT CAVOK 03/M01 Q1014 NOSIG
  • 211630Z AUTO 09005KT CAVOK 04/M01 Q1014 NOSIG
  • 211600Z AUTO 09004KT 060V120 CAVOK 05/M01 Q1014 NOSIG
  • 211530Z AUTO 10004KT 070V140 CAVOK 06/M01 Q1014 NOSIG
  • 211500Z AUTO 11006KT 070V130 CAVOK 06/M01 Q1013 NOSIG

TAF TAF LFRM
Valide du 21 à 12h jusqu'au 22 à 12h UTC


211100Z 2112/2212 VRB03KT 8000 NSC
BECMG 2114/2116 07010KT
BECMG 2200/2202 4000 BR BKN010
TEMPO 2203/2207 2000 BKN003
PROB30
TEMPO 2207/2211 3000 -SHRA BKN005 SCT026TCU
Pas de NOTAMs connus pour ce terrain.



MET'MAP, la Météo Aéronautique d'un coup d'oeil ! - Copyright ORBIFLY Décembre 2007 - Disclaimer

ORBIFLY MET'MAP TEAM :

Programmation & Développement : Alexandra Zaïnal
Conception & Développement : Baudouin d'Aumeries
Co-Programmation & Développement : Marc-Olivier Méhu
Soutien technique & logistique : Manuel Goepfert

Contact : metmap@orbifly.com




SOURCES & CREDITS :

   NOAA